sensor_id;sensor_type;location;lat;lon;timestamp;P1;durP1;ratioP1;P2;durP2;ratioP2
13051;SDS011;6592;47.484;9.726;2024-03-08T00:00:14;25.15;;;10.68;;
13051;SDS011;6592;47.484;9.726;2024-03-08T00:02:46;25.27;;;10.93;;
13051;SDS011;6592;47.484;9.726;2024-03-08T00:07:47;30.40;;;11.02;;
13051;SDS011;6592;47.484;9.726;2024-03-08T00:10:15;27.95;;;10.80;;
13051;SDS011;6592;47.484;9.726;2024-03-08T00:12:44;24.58;;;10.52;;
13051;SDS011;6592;47.484;9.726;2024-03-08T00:15:13;29.20;;;11.38;;
13051;SDS011;6592;47.484;9.726;2024-03-08T00:17:45;27.25;;;10.93;;
13051;SDS011;6592;47.484;9.726;2024-03-08T00:20:14;30.05;;;11.93;;
13051;SDS011;6592;47.484;9.726;2024-03-08T00:22:46;33.53;;;11.70;;
13051;SDS011;6592;47.484;9.726;2024-03-08T00:25:15;30.63;;;12.20;;
13051;SDS011;6592;47.484;9.726;2024-03-08T00:27:43;31.23;;;11.52;;
13051;SDS011;6592;47.484;9.726;2024-03-08T00:30:11;29.65;;;11.93;;
13051;SDS011;6592;47.484;9.726;2024-03-08T00:32:40;30.73;;;11.20;;
13051;SDS011;6592;47.484;9.726;2024-03-08T00:35:09;29.30;;;12.18;;
13051;SDS011;6592;47.484;9.726;2024-03-08T00:37:39;33.63;;;12.43;;
13051;SDS011;6592;47.484;9.726;2024-03-08T00:40:10;29.55;;;12.07;;
13051;SDS011;6592;47.484;9.726;2024-03-08T00:42:39;29.40;;;11.77;;
13051;SDS011;6592;47.484;9.726;2024-03-08T00:45:08;28.85;;;10.95;;
13051;SDS011;6592;47.484;9.726;2024-03-08T00:47:37;37.28;;;12.32;;
13051;SDS011;6592;47.484;9.726;2024-03-08T00:50:06;32.47;;;11.77;;
13051;SDS011;6592;47.484;9.726;2024-03-08T00:52:35;29.90;;;11.85;;
13051;SDS011;6592;47.484;9.726;2024-03-08T00:55:04;30.20;;;12.18;;
13051;SDS011;6592;47.484;9.726;2024-03-08T00:57:35;29.73;;;12.18;;
13051;SDS011;6592;47.484;9.726;2024-03-08T01:00:05;32.65;;;12.65;;
13051;SDS011;6592;47.484;9.726;2024-03-08T01:02:38;33.65;;;12.07;;
13051;SDS011;6592;47.484;9.726;2024-03-08T01:05:07;33.35;;;12.45;;
13051;SDS011;6592;47.484;9.726;2024-03-08T01:07:36;31.02;;;12.30;;
13051;SDS011;6592;47.484;9.726;2024-03-08T01:10:04;30.73;;;12.48;;
13051;SDS011;6592;47.484;9.726;2024-03-08T01:15:06;28.83;;;12.15;;
13051;SDS011;6592;47.484;9.726;2024-03-08T01:17:34;31.50;;;12.98;;
13051;SDS011;6592;47.484;9.726;2024-03-08T01:20:03;32.50;;;12.55;;
13051;SDS011;6592;47.484;9.726;2024-03-08T01:22:33;30.77;;;12.05;;
13051;SDS011;6592;47.484;9.726;2024-03-08T01:25:01;33.08;;;12.68;;
13051;SDS011;6592;47.484;9.726;2024-03-08T01:27:31;32.83;;;12.27;;
13051;SDS011;6592;47.484;9.726;2024-03-08T01:30:02;33.47;;;12.75;;
13051;SDS011;6592;47.484;9.726;2024-03-08T01:32:31;31.70;;;12.43;;
13051;SDS011;6592;47.484;9.726;2024-03-08T01:35:00;35.55;;;13.60;;
13051;SDS011;6592;47.484;9.726;2024-03-08T01:37:29;32.55;;;12.63;;
13051;SDS011;6592;47.484;9.726;2024-03-08T01:39:57;35.72;;;13.38;;
13051;SDS011;6592;47.484;9.726;2024-03-08T01:42:26;37.20;;;13.73;;
13051;SDS011;6592;47.484;9.726;2024-03-08T01:44:54;34.95;;;14.20;;
13051;SDS011;6592;47.484;9.726;2024-03-08T01:47:24;37.30;;;13.32;;
13051;SDS011;6592;47.484;9.726;2024-03-08T01:49:53;33.17;;;13.52;;
13051;SDS011;6592;47.484;9.726;2024-03-08T01:52:21;31.75;;;12.07;;
13051;SDS011;6592;47.484;9.726;2024-03-08T01:54:51;35.42;;;12.90;;
13051;SDS011;6592;47.484;9.726;2024-03-08T01:57:20;33.28;;;12.85;;
13051;SDS011;6592;47.484;9.726;2024-03-08T01:59:49;34.58;;;13.00;;
13051;SDS011;6592;47.484;9.726;2024-03-08T02:02:17;34.65;;;12.80;;
13051;SDS011;6592;47.484;9.726;2024-03-08T02:04:48;32.17;;;12.38;;
13051;SDS011;6592;47.484;9.726;2024-03-08T02:07:19;37.15;;;13.13;;
13051;SDS011;6592;47.484;9.726;2024-03-08T02:09:48;39.58;;;13.18;;
13051;SDS011;6592;47.484;9.726;2024-03-08T02:12:17;37.42;;;13.35;;
13051;SDS011;6592;47.484;9.726;2024-03-08T02:14:47;37.00;;;12.82;;
13051;SDS011;6592;47.484;9.726;2024-03-08T02:17:15;35.05;;;13.05;;
13051;SDS011;6592;47.484;9.726;2024-03-08T02:19:44;35.75;;;13.05;;
13051;SDS011;6592;47.484;9.726;2024-03-08T02:22:14;40.05;;;13.43;;
13051;SDS011;6592;47.484;9.726;2024-03-08T02:24:43;32.13;;;13.07;;
13051;SDS011;6592;47.484;9.726;2024-03-08T02:27:12;36.40;;;13.70;;
13051;SDS011;6592;47.484;9.726;2024-03-08T02:29:41;32.75;;;12.73;;
13051;SDS011;6592;47.484;9.726;2024-03-08T02:32:11;36.33;;;12.77;;
13051;SDS011;6592;47.484;9.726;2024-03-08T02:34:39;31.55;;;12.60;;
13051;SDS011;6592;47.484;9.726;2024-03-08T02:37:08;33.45;;;12.75;;
13051;SDS011;6592;47.484;9.726;2024-03-08T02:39:37;34.97;;;13.15;;
13051;SDS011;6592;47.484;9.726;2024-03-08T02:42:06;40.78;;;13.35;;
13051;SDS011;6592;47.484;9.726;2024-03-08T02:44:35;32.80;;;12.23;;
13051;SDS011;6592;47.484;9.726;2024-03-08T02:47:04;31.90;;;12.60;;
13051;SDS011;6592;47.484;9.726;2024-03-08T02:49:32;32.60;;;12.27;;
13051;SDS011;6592;47.484;9.726;2024-03-08T02:52:00;35.78;;;12.25;;
13051;SDS011;6592;47.484;9.726;2024-03-08T02:54:29;32.30;;;11.85;;
13051;SDS011;6592;47.484;9.726;2024-03-08T02:56:58;31.13;;;12.27;;
13051;SDS011;6592;47.484;9.726;2024-03-08T02:59:27;32.88;;;12.27;;
13051;SDS011;6592;47.484;9.726;2024-03-08T03:01:56;33.28;;;12.57;;
13051;SDS011;6592;47.484;9.726;2024-03-08T03:04:24;32.78;;;12.27;;
13051;SDS011;6592;47.484;9.726;2024-03-08T03:06:52;30.33;;;11.95;;
13051;SDS011;6592;47.484;9.726;2024-03-08T03:09:21;30.77;;;11.80;;
13051;SDS011;6592;47.484;9.726;2024-03-08T03:11:54;34.70;;;13.03;;
13051;SDS011;6592;47.484;9.726;2024-03-08T03:14:23;32.63;;;12.37;;
13051;SDS011;6592;47.484;9.726;2024-03-08T03:16:53;31.40;;;11.80;;
13051;SDS011;6592;47.484;9.726;2024-03-08T03:19:22;34.77;;;13.03;;
13051;SDS011;6592;47.484;9.726;2024-03-08T03:21:50;35.93;;;12.97;;
13051;SDS011;6592;47.484;9.726;2024-03-08T03:24:19;36.40;;;12.60;;
13051;SDS011;6592;47.484;9.726;2024-03-08T03:26:47;30.50;;;11.63;;
13051;SDS011;6592;47.484;9.726;2024-03-08T03:29:16;31.83;;;11.80;;
13051;SDS011;6592;47.484;9.726;2024-03-08T03:31:46;36.20;;;12.70;;
13051;SDS011;6592;47.484;9.726;2024-03-08T03:34:14;33.57;;;11.67;;
13051;SDS011;6592;47.484;9.726;2024-03-08T03:36:44;31.20;;;12.10;;
13051;SDS011;6592;47.484;9.726;2024-03-08T03:39:13;34.10;;;11.93;;
13051;SDS011;6592;47.484;9.726;2024-03-08T03:41:43;32.87;;;12.30;;
13051;SDS011;6592;47.484;9.726;2024-03-08T03:44:13;30.50;;;11.13;;
13051;SDS011;6592;47.484;9.726;2024-03-08T03:46:41;32.30;;;12.10;;
13051;SDS011;6592;47.484;9.726;2024-03-08T03:49:13;32.67;;;11.97;;
13051;SDS011;6592;47.484;9.726;2024-03-08T03:51:41;33.63;;;12.03;;
13051;SDS011;6592;47.484;9.726;2024-03-08T03:54:11;36.63;;;11.53;;
13051;SDS011;6592;47.484;9.726;2024-03-08T03:56:39;30.43;;;11.20;;
13051;SDS011;6592;47.484;9.726;2024-03-08T03:59:07;34.50;;;12.33;;
13051;SDS011;6592;47.484;9.726;2024-03-08T04:01:36;32.67;;;12.00;;
13051;SDS011;6592;47.484;9.726;2024-03-08T04:04:09;30.07;;;11.57;;
13051;SDS011;6592;47.484;9.726;2024-03-08T04:06:40;34.70;;;11.50;;
13051;SDS011;6592;47.484;9.726;2024-03-08T04:09:08;29.83;;;11.87;;
13051;SDS011;6592;47.484;9.726;2024-03-08T04:11:37;30.57;;;11.33;;
13051;SDS011;6592;47.484;9.726;2024-03-08T04:14:06;29.80;;;10.73;;
13051;SDS011;6592;47.484;9.726;2024-03-08T04:16:34;33.10;;;11.33;;
13051;SDS011;6592;47.484;9.726;2024-03-08T04:19:02;35.03;;;12.63;;
13051;SDS011;6592;47.484;9.726;2024-03-08T04:21:31;36.17;;;12.63;;
13051;SDS011;6592;47.484;9.726;2024-03-08T04:24:00;32.10;;;11.90;;
13051;SDS011;6592;47.484;9.726;2024-03-08T04:26:29;32.07;;;11.73;;
13051;SDS011;6592;47.484;9.726;2024-03-08T04:28:57;34.67;;;12.40;;
13051;SDS011;6592;47.484;9.726;2024-03-08T04:31:25;35.87;;;12.50;;
13051;SDS011;6592;47.484;9.726;2024-03-08T04:33:54;34.73;;;12.27;;
13051;SDS011;6592;47.484;9.726;2024-03-08T04:36:22;38.90;;;13.00;;
13051;SDS011;6592;47.484;9.726;2024-03-08T04:38:51;35.28;;;12.75;;
13051;SDS011;6592;47.484;9.726;2024-03-08T04:41:21;34.17;;;12.57;;
13051;SDS011;6592;47.484;9.726;2024-03-08T04:43:49;32.63;;;12.40;;
13051;SDS011;6592;47.484;9.726;2024-03-08T04:46:18;33.20;;;12.20;;
13051;SDS011;6592;47.484;9.726;2024-03-08T04:48:46;32.92;;;12.32;;
13051;SDS011;6592;47.484;9.726;2024-03-08T04:51:15;32.85;;;12.43;;
13051;SDS011;6592;47.484;9.726;2024-03-08T04:53:43;32.78;;;12.38;;
13051;SDS011;6592;47.484;9.726;2024-03-08T04:56:12;32.85;;;12.25;;
13051;SDS011;6592;47.484;9.726;2024-03-08T04:58:41;33.25;;;11.48;;
13051;SDS011;6592;47.484;9.726;2024-03-08T05:01:09;30.02;;;11.88;;
13051;SDS011;6592;47.484;9.726;2024-03-08T05:03:38;34.28;;;11.80;;
13051;SDS011;6592;47.484;9.726;2024-03-08T05:06:06;32.55;;;12.13;;
13051;SDS011;6592;47.484;9.726;2024-03-08T05:08:35;29.23;;;11.75;;
13051;SDS011;6592;47.484;9.726;2024-03-08T05:11:03;32.03;;;11.77;;
13051;SDS011;6592;47.484;9.726;2024-03-08T05:13:33;29.60;;;11.95;;
13051;SDS011;6592;47.484;9.726;2024-03-08T05:16:03;34.92;;;11.95;;
13051;SDS011;6592;47.484;9.726;2024-03-08T05:18:33;30.42;;;11.30;;
13051;SDS011;6592;47.484;9.726;2024-03-08T05:21:02;34.05;;;12.77;;
13051;SDS011;6592;47.484;9.726;2024-03-08T05:23:31;30.88;;;12.07;;
13051;SDS011;6592;47.484;9.726;2024-03-08T05:26:00;34.15;;;12.57;;
13051;SDS011;6592;47.484;9.726;2024-03-08T05:28:30;30.38;;;12.35;;
13051;SDS011;6592;47.484;9.726;2024-03-08T05:30:58;32.53;;;11.93;;
13051;SDS011;6592;47.484;9.726;2024-03-08T05:33:27;30.25;;;12.05;;
13051;SDS011;6592;47.484;9.726;2024-03-08T05:35:56;36.78;;;12.48;;
13051;SDS011;6592;47.484;9.726;2024-03-08T05:38:25;31.98;;;12.10;;
13051;SDS011;6592;47.484;9.726;2024-03-08T05:40:54;31.10;;;11.50;;
13051;SDS011;6592;47.484;9.726;2024-03-08T05:43:22;30.02;;;11.52;;
13051;SDS011;6592;47.484;9.726;2024-03-08T05:45:51;33.78;;;11.88;;
13051;SDS011;6592;47.484;9.726;2024-03-08T05:48:19;33.92;;;12.60;;
13051;SDS011;6592;47.484;9.726;2024-03-08T05:50:50;31.98;;;11.80;;
13051;SDS011;6592;47.484;9.726;2024-03-08T05:53:18;27.52;;;10.90;;
13051;SDS011;6592;47.484;9.726;2024-03-08T05:55:47;31.20;;;10.95;;
13051;SDS011;6592;47.484;9.726;2024-03-08T05:58:15;28.15;;;11.45;;
13051;SDS011;6592;47.484;9.726;2024-03-08T06:00:44;34.45;;;12.10;;
13051;SDS011;6592;47.484;9.726;2024-03-08T06:05:46;30.38;;;10.98;;
13051;SDS011;6592;47.484;9.726;2024-03-08T06:08:17;28.17;;;9.75;;
13051;SDS011;6592;47.484;9.726;2024-03-08T06:10:45;26.00;;;10.45;;
13051;SDS011;6592;47.484;9.726;2024-03-08T06:13:17;22.95;;;9.55;;
13051;SDS011;6592;47.484;9.726;2024-03-08T06:15:45;32.05;;;11.18;;
13051;SDS011;6592;47.484;9.726;2024-03-08T06:18:13;22.85;;;8.65;;
13051;SDS011;6592;47.484;9.726;2024-03-08T06:20:42;20.95;;;8.15;;
13051;SDS011;6592;47.484;9.726;2024-03-08T06:23:12;19.35;;;7.70;;
13051;SDS011;6592;47.484;9.726;2024-03-08T06:25:46;22.08;;;8.52;;
13051;SDS011;6592;47.484;9.726;2024-03-08T06:28:14;24.75;;;9.20;;
13051;SDS011;6592;47.484;9.726;2024-03-08T06:30:43;18.95;;;7.55;;
13051;SDS011;6592;47.484;9.726;2024-03-08T06:33:11;20.23;;;7.65;;
13051;SDS011;6592;47.484;9.726;2024-03-08T06:35:40;18.83;;;7.28;;
13051;SDS011;6592;47.484;9.726;2024-03-08T06:38:08;18.38;;;7.20;;
13051;SDS011;6592;47.484;9.726;2024-03-08T06:40:37;18.75;;;7.63;;
13051;SDS011;6592;47.484;9.726;2024-03-08T06:43:08;19.05;;;7.68;;
13051;SDS011;6592;47.484;9.726;2024-03-08T06:45:40;16.40;;;6.47;;
13051;SDS011;6592;47.484;9.726;2024-03-08T06:48:15;16.67;;;6.47;;
13051;SDS011;6592;47.484;9.726;2024-03-08T06:50:43;18.60;;;6.75;;
13051;SDS011;6592;47.484;9.726;2024-03-08T06:53:12;17.55;;;6.75;;
13051;SDS011;6592;47.484;9.726;2024-03-08T06:58:13;16.80;;;6.93;;
13051;SDS011;6592;47.484;9.726;2024-03-08T07:00:42;18.10;;;7.25;;
13051;SDS011;6592;47.484;9.726;2024-03-08T07:03:10;17.33;;;7.18;;
13051;SDS011;6592;47.484;9.726;2024-03-08T07:05:43;20.00;;;7.97;;
13051;SDS011;6592;47.484;9.726;2024-03-08T07:08:12;20.85;;;7.65;;
13051;SDS011;6592;47.484;9.726;2024-03-08T07:10:42;23.33;;;8.43;;
13051;SDS011;6592;47.484;9.726;2024-03-08T07:13:11;21.00;;;8.70;;
13051;SDS011;6592;47.484;9.726;2024-03-08T07:15:41;20.92;;;8.30;;
13051;SDS011;6592;47.484;9.726;2024-03-08T07:18:09;21.60;;;8.20;;
13051;SDS011;6592;47.484;9.726;2024-03-08T07:20:41;18.85;;;8.25;;
13051;SDS011;6592;47.484;9.726;2024-03-08T07:23:10;20.65;;;7.43;;
13051;SDS011;6592;47.484;9.726;2024-03-08T07:25:58;19.90;;;7.95;;
13051;SDS011;6592;47.484;9.726;2024-03-08T07:28:29;19.50;;;7.13;;
13051;SDS011;6592;47.484;9.726;2024-03-08T07:30:57;22.05;;;9.13;;
13051;SDS011;6592;47.484;9.726;2024-03-08T07:33:39;21.45;;;8.85;;
13051;SDS011;6592;47.484;9.726;2024-03-08T07:36:07;23.30;;;8.90;;
13051;SDS011;6592;47.484;9.726;2024-03-08T07:38:36;20.17;;;8.55;;
13051;SDS011;6592;47.484;9.726;2024-03-08T07:41:04;19.13;;;7.97;;
13051;SDS011;6592;47.484;9.726;2024-03-08T07:43:34;19.88;;;8.55;;
13051;SDS011;6592;47.484;9.726;2024-03-08T07:46:02;21.98;;;8.90;;
13051;SDS011;6592;47.484;9.726;2024-03-08T07:48:30;23.13;;;8.93;;
13051;SDS011;6592;47.484;9.726;2024-03-08T07:50:59;24.25;;;10.40;;
13051;SDS011;6592;47.484;9.726;2024-03-08T07:53:27;26.95;;;11.02;;
13051;SDS011;6592;47.484;9.726;2024-03-08T07:55:55;28.35;;;11.57;;
13051;SDS011;6592;47.484;9.726;2024-03-08T07:58:23;27.83;;;10.82;;
13051;SDS011;6592;47.484;9.726;2024-03-08T08:00:53;25.58;;;10.93;;
13051;SDS011;6592;47.484;9.726;2024-03-08T08:03:21;26.52;;;10.73;;
13051;SDS011;6592;47.484;9.726;2024-03-08T08:05:50;28.90;;;11.68;;
13051;SDS011;6592;47.484;9.726;2024-03-08T08:08:18;26.63;;;11.05;;
13051;SDS011;6592;47.484;9.726;2024-03-08T08:10:46;26.15;;;10.50;;
13051;SDS011;6592;47.484;9.726;2024-03-08T08:13:16;29.33;;;11.52;;
13051;SDS011;6592;47.484;9.726;2024-03-08T08:15:44;24.88;;;10.77;;
13051;SDS011;6592;47.484;9.726;2024-03-08T08:18:14;26.73;;;10.65;;
13051;SDS011;6592;47.484;9.726;2024-03-08T08:20:43;27.15;;;10.98;;
13051;SDS011;6592;47.484;9.726;2024-03-08T08:23:12;29.60;;;11.88;;
13051;SDS011;6592;47.484;9.726;2024-03-08T08:25:40;29.48;;;11.38;;
13051;SDS011;6592;47.484;9.726;2024-03-08T08:28:08;28.63;;;11.50;;
13051;SDS011;6592;47.484;9.726;2024-03-08T08:30:39;26.58;;;10.55;;
13051;SDS011;6592;47.484;9.726;2024-03-08T08:33:07;27.63;;;11.60;;
13051;SDS011;6592;47.484;9.726;2024-03-08T08:35:37;30.52;;;12.02;;
13051;SDS011;6592;47.484;9.726;2024-03-08T08:38:05;32.05;;;12.07;;
13051;SDS011;6592;47.484;9.726;2024-03-08T08:40:34;30.02;;;11.75;;
13051;SDS011;6592;47.484;9.726;2024-03-08T08:43:03;33.30;;;12.13;;
13051;SDS011;6592;47.484;9.726;2024-03-08T08:45:32;33.47;;;12.43;;
13051;SDS011;6592;47.484;9.726;2024-03-08T08:48:00;31.25;;;12.40;;
13051;SDS011;6592;47.484;9.726;2024-03-08T08:50:29;29.48;;;12.18;;
13051;SDS011;6592;47.484;9.726;2024-03-08T08:52:58;34.15;;;12.13;;
13051;SDS011;6592;47.484;9.726;2024-03-08T08:55:27;29.98;;;11.82;;
13051;SDS011;6592;47.484;9.726;2024-03-08T08:57:55;30.10;;;12.18;;
13051;SDS011;6592;47.484;9.726;2024-03-08T09:00:23;29.27;;;11.63;;
13051;SDS011;6592;47.484;9.726;2024-03-08T09:02:54;31.00;;;11.82;;
13051;SDS011;6592;47.484;9.726;2024-03-08T09:05:25;29.15;;;11.15;;
13051;SDS011;6592;47.484;9.726;2024-03-08T09:07:53;27.98;;;10.95;;
13051;SDS011;6592;47.484;9.726;2024-03-08T09:10:23;28.33;;;11.38;;
13051;SDS011;6592;47.484;9.726;2024-03-08T09:12:54;29.17;;;11.52;;
13051;SDS011;6592;47.484;9.726;2024-03-08T09:15:22;29.67;;;11.43;;
13051;SDS011;6592;47.484;9.726;2024-03-08T09:17:53;24.20;;;9.80;;
13051;SDS011;6592;47.484;9.726;2024-03-08T09:20:22;24.25;;;10.65;;
13051;SDS011;6592;47.484;9.726;2024-03-08T09:22:51;27.38;;;10.50;;
13051;SDS011;6592;47.484;9.726;2024-03-08T09:25:19;27.00;;;10.20;;
13051;SDS011;6592;47.484;9.726;2024-03-08T09:27:50;23.77;;;10.20;;
13051;SDS011;6592;47.484;9.726;2024-03-08T09:30:18;25.42;;;10.98;;
13051;SDS011;6592;47.484;9.726;2024-03-08T09:32:47;22.40;;;9.18;;
13051;SDS011;6592;47.484;9.726;2024-03-08T09:35:18;21.48;;;9.68;;
13051;SDS011;6592;47.484;9.726;2024-03-08T09:37:46;23.08;;;9.48;;
13051;SDS011;6592;47.484;9.726;2024-03-08T09:40:18;26.17;;;9.68;;
13051;SDS011;6592;47.484;9.726;2024-03-08T09:42:47;22.80;;;9.30;;
13051;SDS011;6592;47.484;9.726;2024-03-08T09:45:17;20.73;;;8.75;;
13051;SDS011;6592;47.484;9.726;2024-03-08T09:47:48;18.92;;;8.30;;
13051;SDS011;6592;47.484;9.726;2024-03-08T09:50:17;17.70;;;7.55;;
13051;SDS011;6592;47.484;9.726;2024-03-08T09:52:46;20.77;;;8.60;;
13051;SDS011;6592;47.484;9.726;2024-03-08T09:55:16;18.75;;;8.20;;
13051;SDS011;6592;47.484;9.726;2024-03-08T09:57:50;21.25;;;8.73;;
13051;SDS011;6592;47.484;9.726;2024-03-08T10:00:38;20.83;;;8.50;;
13051;SDS011;6592;47.484;9.726;2024-03-08T10:03:07;18.65;;;7.93;;
13051;SDS011;6592;47.484;9.726;2024-03-08T10:05:38;17.23;;;7.93;;
13051;SDS011;6592;47.484;9.726;2024-03-08T10:08:06;19.70;;;8.32;;
13051;SDS011;6592;47.484;9.726;2024-03-08T10:10:35;17.00;;;7.93;;
13051;SDS011;6592;47.484;9.726;2024-03-08T10:13:06;15.82;;;7.65;;
13051;SDS011;6592;47.484;9.726;2024-03-08T10:15:34;16.23;;;7.53;;
13051;SDS011;6592;47.484;9.726;2024-03-08T10:18:05;14.57;;;7.13;;
13051;SDS011;6592;47.484;9.726;2024-03-08T10:20:33;13.13;;;6.85;;
13051;SDS011;6592;47.484;9.726;2024-03-08T10:23:02;13.95;;;7.03;;
13051;SDS011;6592;47.484;9.726;2024-03-08T10:25:37;12.80;;;6.43;;
13051;SDS011;6592;47.484;9.726;2024-03-08T10:28:07;11.77;;;6.65;;
13051;SDS011;6592;47.484;9.726;2024-03-08T10:30:35;10.57;;;5.88;;
13051;SDS011;6592;47.484;9.726;2024-03-08T10:33:04;11.10;;;6.20;;
13051;SDS011;6592;47.484;9.726;2024-03-08T10:35:33;11.57;;;6.30;;
13051;SDS011;6592;47.484;9.726;2024-03-08T10:38:01;10.30;;;6.05;;
13051;SDS011;6592;47.484;9.726;2024-03-08T10:40:35;10.77;;;6.05;;
13051;SDS011;6592;47.484;9.726;2024-03-08T10:43:08;10.75;;;6.43;;
13051;SDS011;6592;47.484;9.726;2024-03-08T10:45:45;10.63;;;5.85;;
13051;SDS011;6592;47.484;9.726;2024-03-08T10:48:20;10.23;;;6.25;;
13051;SDS011;6592;47.484;9.726;2024-03-08T10:51:03;10.27;;;6.20;;
13051;SDS011;6592;47.484;9.726;2024-03-08T10:53:34;11.48;;;6.38;;
13051;SDS011;6592;47.484;9.726;2024-03-08T10:56:08;11.23;;;6.68;;
13051;SDS011;6592;47.484;9.726;2024-03-08T10:58:38;9.80;;;6.00;;
13051;SDS011;6592;47.484;9.726;2024-03-08T11:01:08;9.32;;;6.00;;
13051;SDS011;6592;47.484;9.726;2024-03-08T11:03:43;10.20;;;6.28;;
13051;SDS011;6592;47.484;9.726;2024-03-08T11:06:16;10.57;;;6.25;;
13051;SDS011;6592;47.484;9.726;2024-03-08T11:08:49;10.75;;;6.30;;
13051;SDS011;6592;47.484;9.726;2024-03-08T11:11:24;9.80;;;5.95;;
13051;SDS011;6592;47.484;9.726;2024-03-08T11:14:02;9.95;;;6.10;;
13051;SDS011;6592;47.484;9.726;2024-03-08T11:19:23;10.25;;;6.55;;
13051;SDS011;6592;47.484;9.726;2024-03-08T11:22:03;10.20;;;6.10;;
13051;SDS011;6592;47.484;9.726;2024-03-08T11:24:37;11.70;;;6.60;;
13051;SDS011;6592;47.484;9.726;2024-03-08T11:27:09;10.98;;;6.50;;
13051;SDS011;6592;47.484;9.726;2024-03-08T11:29:39;10.45;;;6.20;;
13051;SDS011;6592;47.484;9.726;2024-03-08T11:32:08;17.13;;;9.57;;
13051;SDS011;6592;47.484;9.726;2024-03-08T11:34:39;15.43;;;8.60;;
13051;SDS011;6592;47.484;9.726;2024-03-08T11:37:12;11.65;;;7.13;;
13051;SDS011;6592;47.484;9.726;2024-03-08T11:39:46;11.38;;;6.57;;
13051;SDS011;6592;47.484;9.726;2024-03-08T11:42:15;14.52;;;8.05;;
13051;SDS011;6592;47.484;9.726;2024-03-08T11:44:45;10.68;;;6.75;;
13051;SDS011;6592;47.484;9.726;2024-03-08T11:47:15;12.15;;;7.20;;
13051;SDS011;6592;47.484;9.726;2024-03-08T11:49:43;13.60;;;7.03;;
13051;SDS011;6592;47.484;9.726;2024-03-08T11:52:15;10.25;;;6.68;;
13051;SDS011;6592;47.484;9.726;2024-03-08T11:54:47;12.52;;;7.32;;
13051;SDS011;6592;47.484;9.726;2024-03-08T11:57:20;10.45;;;6.35;;
13051;SDS011;6592;47.484;9.726;2024-03-08T11:59:51;13.13;;;7.07;;
13051;SDS011;6592;47.484;9.726;2024-03-08T12:02:23;11.60;;;7.03;;
13051;SDS011;6592;47.484;9.726;2024-03-08T12:04:56;13.25;;;7.07;;
13051;SDS011;6592;47.484;9.726;2024-03-08T12:07:26;10.55;;;6.57;;
13051;SDS011;6592;47.484;9.726;2024-03-08T12:10:14;11.45;;;6.55;;
13051;SDS011;6592;47.484;9.726;2024-03-08T12:12:44;11.57;;;6.82;;
13051;SDS011;6592;47.484;9.726;2024-03-08T12:15:16;12.30;;;7.25;;
13051;SDS011;6592;47.484;9.726;2024-03-08T12:17:45;11.35;;;7.00;;
13051;SDS011;6592;47.484;9.726;2024-03-08T12:20:18;10.70;;;6.60;;
13051;SDS011;6592;47.484;9.726;2024-03-08T12:22:48;11.75;;;6.85;;
13051;SDS011;6592;47.484;9.726;2024-03-08T12:25:19;12.95;;;6.78;;
13051;SDS011;6592;47.484;9.726;2024-03-08T12:27:48;11.32;;;6.65;;
13051;SDS011;6592;47.484;9.726;2024-03-08T12:30:22;11.80;;;7.30;;
13051;SDS011;6592;47.484;9.726;2024-03-08T12:32:54;9.55;;;6.43;;
13051;SDS011;6592;47.484;9.726;2024-03-08T12:35:25;11.90;;;7.10;;
13051;SDS011;6592;47.484;9.726;2024-03-08T12:37:55;10.90;;;7.22;;
13051;SDS011;6592;47.484;9.726;2024-03-08T12:40:27;13.07;;;6.97;;
13051;SDS011;6592;47.484;9.726;2024-03-08T12:42:58;11.18;;;6.82;;
13051;SDS011;6592;47.484;9.726;2024-03-08T12:45:28;12.40;;;7.07;;
13051;SDS011;6592;47.484;9.726;2024-03-08T12:47:56;11.52;;;7.28;;
13051;SDS011;6592;47.484;9.726;2024-03-08T12:50:26;11.27;;;7.18;;
13051;SDS011;6592;47.484;9.726;2024-03-08T12:52:54;12.95;;;7.13;;
13051;SDS011;6592;47.484;9.726;2024-03-08T12:55:23;9.65;;;6.57;;
13051;SDS011;6592;47.484;9.726;2024-03-08T12:57:50;11.70;;;6.97;;
13051;SDS011;6592;47.484;9.726;2024-03-08T13:00:19;11.00;;;6.55;;
13051;SDS011;6592;47.484;9.726;2024-03-08T13:02:51;11.55;;;7.25;;
13051;SDS011;6592;47.484;9.726;2024-03-08T13:05:19;12.70;;;6.93;;
13051;SDS011;6592;47.484;9.726;2024-03-08T13:07:48;11.88;;;6.75;;
13051;SDS011;6592;47.484;9.726;2024-03-08T13:10:17;11.50;;;7.00;;
13051;SDS011;6592;47.484;9.726;2024-03-08T13:12:47;11.13;;;6.90;;
13051;SDS011;6592;47.484;9.726;2024-03-08T13:15:19;11.50;;;6.72;;
13051;SDS011;6592;47.484;9.726;2024-03-08T13:17:47;10.77;;;7.03;;
13051;SDS011;6592;47.484;9.726;2024-03-08T13:20:18;10.57;;;7.00;;
13051;SDS011;6592;47.484;9.726;2024-03-08T13:22:56;10.77;;;6.97;;
13051;SDS011;6592;47.484;9.726;2024-03-08T13:25:28;11.07;;;7.47;;
13051;SDS011;6592;47.484;9.726;2024-03-08T13:27:56;11.35;;;7.35;;
13051;SDS011;6592;47.484;9.726;2024-03-08T13:30:27;11.15;;;7.03;;
13051;SDS011;6592;47.484;9.726;2024-03-08T13:32:57;11.40;;;7.23;;
13051;SDS011;6592;47.484;9.726;2024-03-08T13:35:27;11.02;;;7.05;;
13051;SDS011;6592;47.484;9.726;2024-03-08T13:37:56;9.88;;;6.65;;
13051;SDS011;6592;47.484;9.726;2024-03-08T13:40:25;11.65;;;7.60;;
13051;SDS011;6592;47.484;9.726;2024-03-08T13:42:53;11.75;;;7.50;;
13051;SDS011;6592;47.484;9.726;2024-03-08T13:45:22;11.68;;;7.20;;
13051;SDS011;6592;47.484;9.726;2024-03-08T13:47:51;11.45;;;7.40;;
13051;SDS011;6592;47.484;9.726;2024-03-08T13:50:21;10.85;;;7.07;;
13051;SDS011;6592;47.484;9.726;2024-03-08T13:52:51;10.65;;;7.22;;
13051;SDS011;6592;47.484;9.726;2024-03-08T13:55:22;11.55;;;6.50;;
13051;SDS011;6592;47.484;9.726;2024-03-08T13:57:52;11.95;;;7.70;;
13051;SDS011;6592;47.484;9.726;2024-03-08T14:00:21;10.73;;;7.10;;
13051;SDS011;6592;47.484;9.726;2024-03-08T14:02:51;11.93;;;7.72;;
13051;SDS011;6592;47.484;9.726;2024-03-08T14:05:20;11.23;;;7.78;;
13051;SDS011;6592;47.484;9.726;2024-03-08T14:07:49;11.15;;;7.15;;
13051;SDS011;6592;47.484;9.726;2024-03-08T14:10:18;10.45;;;7.18;;
13051;SDS011;6592;47.484;9.726;2024-03-08T14:12:49;10.63;;;7.03;;
13051;SDS011;6592;47.484;9.726;2024-03-08T14:15:17;11.40;;;7.22;;
13051;SDS011;6592;47.484;9.726;2024-03-08T14:17:51;11.90;;;7.90;;
13051;SDS011;6592;47.484;9.726;2024-03-08T14:20:20;13.25;;;8.20;;
13051;SDS011;6592;47.484;9.726;2024-03-08T14:22:52;11.30;;;7.40;;
13051;SDS011;6592;47.484;9.726;2024-03-08T14:25:23;11.13;;;7.05;;
13051;SDS011;6592;47.484;9.726;2024-03-08T14:27:52;11.73;;;7.40;;
13051;SDS011;6592;47.484;9.726;2024-03-08T14:30:24;12.05;;;8.05;;
13051;SDS011;6592;47.484;9.726;2024-03-08T14:33:05;11.68;;;7.70;;
13051;SDS011;6592;47.484;9.726;2024-03-08T14:35:35;14.38;;;8.13;;
13051;SDS011;6592;47.484;9.726;2024-03-08T14:38:04;12.50;;;7.85;;
13051;SDS011;6592;47.484;9.726;2024-03-08T14:40:36;14.05;;;8.25;;
13051;SDS011;6592;47.484;9.726;2024-03-08T14:43:05;12.95;;;8.02;;
13051;SDS011;6592;47.484;9.726;2024-03-08T14:45:33;11.77;;;7.97;;
13051;SDS011;6592;47.484;9.726;2024-03-08T14:48:03;12.27;;;7.83;;
13051;SDS011;6592;47.484;9.726;2024-03-08T14:50:32;13.13;;;7.57;;
13051;SDS011;6592;47.484;9.726;2024-03-08T14:53:03;12.52;;;7.57;;
13051;SDS011;6592;47.484;9.726;2024-03-08T14:55:33;13.23;;;7.70;;
13051;SDS011;6592;47.484;9.726;2024-03-08T14:58:03;12.18;;;7.65;;
13051;SDS011;6592;47.484;9.726;2024-03-08T15:00:32;12.75;;;8.07;;
13051;SDS011;6592;47.484;9.726;2024-03-08T15:03:02;13.43;;;8.17;;
13051;SDS011;6592;47.484;9.726;2024-03-08T15:05:32;13.25;;;7.70;;
13051;SDS011;6592;47.484;9.726;2024-03-08T15:08:05;12.15;;;7.50;;